Time;durP1;ratioP1;P1;durP2;ratioP2;P2;SDS_P1;SDS_P2;PMS_P1;PMS_P2;Temp;Humidity;BMP_temperature;BMP_pressure;BME280_temperature;BME280_humidity;BME280_pressure;Samples;Min_cycle;Max_cycle;Signal;HPM_P1;HPM_P2
2021/05/30 00:00:51;;;;;;;;;;;6.30;95.90;;;;;;5005284;28;19917;-67
2021/05/30 00:03:17;;;;;;;;;;;6.30;95.90;;;;;;5002594;28;19920;-68
2021/05/30 00:05:43;;;;;;;;;;;6.30;96.10;;;;;;5002805;28;19974;-66
2021/05/30 00:08:08;;;;;;;;;;;6.30;96.20;;;;;;5003955;28;19913;-68
2021/05/30 00:10:34;;;;;;;;;;;6.20;96.30;;;;;;5002436;28;19913;-68
2021/05/30 00:12:59;;;;;;;;;;;6.20;96.30;;;;;;5002527;28;19993;-67
2021/05/30 00:15:25;;;;;;;;;;;6.20;96.20;;;;;;5003359;28;19914;-67
2021/05/30 00:17:51;;;;;;;;;;;6.10;96.10;;;;;;5002757;28;20544;-69
2021/05/30 00:20:16;;;;;;;;;;;6.10;96.30;;;;;;5005530;28;20262;-68
2021/05/30 00:22:42;;;;;;;;;;;6.10;96.30;;;;;;5002436;28;19918;-67
2021/05/30 00:25:07;;;;;;;;;;;6.10;96.40;;;;;;5001049;28;20029;-67
2021/05/30 00:27:33;;;;;;;;;;;6.10;96.60;;;;;;5002337;28;19914;-68
2021/05/30 00:29:59;;;;;;;;;;;6.10;96.70;;;;;;5001348;28;19963;-69
2021/05/30 00:32:25;;;;;;;;;;;6.10;96.70;;;;;;4999840;28;19921;-69
2021/05/30 00:34:50;;;;;;;;;;;6.10;96.80;;;;;;5003851;28;20362;-69
2021/05/30 00:37:15;;;;;;;;;;;6.10;96.90;;;;;;5001060;28;20359;-68
2021/05/30 00:39:41;;;;;;;;;;;6.00;96.80;;;;;;5002853;28;19933;-68
2021/05/30 00:42:07;;;;;;;;;;;6.00;96.90;;;;;;4999761;28;19948;-68
2021/05/30 00:44:32;;;;;;;;;;;6.00;96.90;;;;;;5003670;28;20032;-68
2021/05/30 00:46:59;;;;;;;;;;;5.90;96.70;;;;;;5003288;28;20743;-69
2021/05/30 00:49:25;;;;;;;;;;;5.90;96.70;;;;;;5004389;28;19925;-68
2021/05/30 00:51:51;;;;;;;;;;;5.80;96.70;;;;;;4999377;28;20366;-68
2021/05/30 00:54:17;;;;;;;;;;;5.70;96.50;;;;;;5002828;28;19948;-68
2021/05/30 00:56:43;;;;;;;;;;;5.70;96.60;;;;;;5003274;28;20547;-69
2021/05/30 00:59:09;;;;;;;;;;;5.70;96.50;;;;;;5004010;28;19928;-68
2021/05/30 01:01:35;;;;;;;;;;;5.70;96.60;;;;;;5003399;28;19910;-68
2021/05/30 01:04:01;;;;;;;;;;;5.60;96.50;;;;;;5004006;28;20120;-70
2021/05/30 01:06:27;;;;;;;;;;;5.60;96.50;;;;;;5005938;28;20016;-68
2021/05/30 01:08:52;;;;;;;;;;;5.60;96.60;;;;;;5001613;28;19921;-69
2021/05/30 01:11:18;;;;;;;;;;;5.60;96.60;;;;;;5005724;28;19967;-68
2021/05/30 01:13:45;;;;;;;;;;;5.60;96.70;;;;;;5003775;28;20285;-68
2021/05/30 01:16:12;;;;;;;;;;;5.60;96.70;;;;;;5005372;28;20376;-68
2021/05/30 01:18:38;;;;;;;;;;;5.60;96.80;;;;;;5000416;28;19917;-68
2021/05/30 01:21:03;;;;;;;;;;;5.60;96.70;;;;;;5002394;28;20409;-69
2021/05/30 01:23:29;;;;;;;;;;;5.50;96.60;;;;;;4996398;28;19983;-68
2021/05/30 01:25:54;;;;;;;;;;;5.50;96.60;;;;;;4999869;28;19914;-68
2021/05/30 01:28:20;;;;;;;;;;;5.40;96.50;;;;;;5001692;28;20013;-69
2021/05/30 01:30:46;;;;;;;;;;;5.30;96.40;;;;;;5003118;28;19964;-68
2021/05/30 01:33:11;;;;;;;;;;;5.20;96.30;;;;;;5000294;28;20397;-69
2021/05/30 01:35:37;;;;;;;;;;;5.20;96.40;;;;;;5005067;28;19913;-68
2021/05/30 01:38:03;;;;;;;;;;;5.30;96.60;;;;;;4999563;28;19952;-68
2021/05/30 01:40:29;;;;;;;;;;;5.20;96.70;;;;;;5003847;28;20263;-67
2021/05/30 01:42:55;;;;;;;;;;;5.10;96.60;;;;;;4998046;28;20298;-68
2021/05/30 01:45:21;;;;;;;;;;;5.10;96.70;;;;;;5004989;28;19913;-68
2021/05/30 01:47:47;;;;;;;;;;;5.10;96.60;;;;;;4999529;28;19913;-69
2021/05/30 01:50:23;;;;;;;;;;;5.00;96.60;;;;;;4997308;28;20023;-68
2021/05/30 01:52:49;;;;;;;;;;;5.00;96.70;;;;;;4998037;28;19975;-69
2021/05/30 01:55:23;;;;;;;;;;;5.10;96.80;;;;;;5004110;28;20013;-68
2021/05/30 01:57:50;;;;;;;;;;;5.00;96.80;;;;;;5002668;28;19976;-68
2021/05/30 02:00:16;;;;;;;;;;;4.90;96.70;;;;;;4999535;28;19914;-68
2021/05/30 02:02:46;;;;;;;;;;;5.00;96.90;;;;;;5001379;28;19952;-68
2021/05/30 02:05:11;;;;;;;;;;;4.90;96.80;;;;;;5001178;28;19921;-68
2021/05/30 02:07:38;;;;;;;;;;;4.90;96.90;;;;;;5001805;28;20279;-68
2021/05/30 02:10:04;;;;;;;;;;;4.90;96.90;;;;;;4998136;28;19914;-69
2021/05/30 02:12:29;;;;;;;;;;;4.80;96.80;;;;;;5000272;28;19921;-68
2021/05/30 02:14:56;;;;;;;;;;;4.80;96.90;;;;;;5004310;28;20327;-68
2021/05/30 02:17:21;;;;;;;;;;;4.80;96.80;;;;;;5003102;28;20312;-69
2021/05/30 02:19:47;;;;;;;;;;;4.70;96.70;;;;;;5001780;28;19932;-69
2021/05/30 02:22:12;;;;;;;;;;;4.80;96.70;;;;;;4997569;28;19917;-69
2021/05/30 02:24:38;;;;;;;;;;;4.70;96.70;;;;;;4994691;28;20020;-68
2021/05/30 02:27:03;;;;;;;;;;;4.60;96.70;;;;;;4998108;28;19913;-69
2021/05/30 02:29:36;;;;;;;;;;;4.60;96.70;;;;;;5000947;28;19914;-68
2021/05/30 02:32:03;;;;;;;;;;;4.60;96.80;;;;;;5003723;28;19934;-69
2021/05/30 02:34:28;;;;;;;;;;;4.60;96.70;;;;;;4995511;28;20276;-68
2021/05/30 02:36:54;;;;;;;;;;;4.60;96.80;;;;;;5000286;28;20004;-69
2021/05/30 02:39:19;;;;;;;;;;;4.50;96.80;;;;;;5000035;28;19918;-68
2021/05/30 02:41:45;;;;;;;;;;;4.50;96.70;;;;;;5002785;28;20036;-68
2021/05/30 02:44:10;;;;;;;;;;;4.40;96.70;;;;;;5001320;28;19921;-70
2021/05/30 02:46:36;;;;;;;;;;;4.50;96.80;;;;;;5003288;28;19913;-68
2021/05/30 02:49:01;;;;;;;;;;;4.40;96.70;;;;;;4998587;28;19921;-67
2021/05/30 02:51:27;;;;;;;;;;;4.40;96.80;;;;;;4999188;28;19940;-70
2021/05/30 02:53:52;;;;;;;;;;;4.40;96.90;;;;;;4996663;28;20060;-69
2021/05/30 02:56:18;;;;;;;;;;;4.40;96.90;;;;;;5001902;28;19983;-70
2021/05/30 02:58:43;;;;;;;;;;;4.40;96.90;;;;;;5001160;28;19961;-68
2021/05/30 03:01:09;;;;;;;;;;;4.30;96.90;;;;;;5002783;28;19931;-68
2021/05/30 03:03:34;;;;;;;;;;;4.30;96.80;;;;;;5001151;28;19918;-69
2021/05/30 03:06:00;;;;;;;;;;;4.30;96.70;;;;;;4997573;28;20008;-69
2021/05/30 03:08:25;;;;;;;;;;;4.20;96.70;;;;;;5000428;28;19996;-68
2021/05/30 03:10:51;;;;;;;;;;;4.20;96.80;;;;;;5001706;28;20261;-69
2021/05/30 03:13:16;;;;;;;;;;;4.20;96.70;;;;;;4997247;28;19918;-69
2021/05/30 03:15:42;;;;;;;;;;;4.20;96.80;;;;;;5000438;28;19917;-68
2021/05/30 03:18:07;;;;;;;;;;;4.20;96.80;;;;;;4999957;28;19928;-68
2021/05/30 03:20:33;;;;;;;;;;;4.30;96.90;;;;;;4999756;28;20282;-67
2021/05/30 03:22:58;;;;;;;;;;;4.30;97.00;;;;;;4999883;28;19952;-68
2021/05/30 03:25:24;;;;;;;;;;;4.30;97.00;;;;;;5000335;28;19961;-67
2021/05/30 03:27:49;;;;;;;;;;;4.40;96.90;;;;;;5000498;28;20354;-68
2021/05/30 03:30:15;;;;;;;;;;;4.40;96.90;;;;;;5002441;28;19932;-68
2021/05/30 03:32:41;;;;;;;;;;;4.40;96.90;;;;;;5001921;28;19925;-68
2021/05/30 03:35:07;;;;;;;;;;;4.40;97.00;;;;;;5003279;28;20013;-70
2021/05/30 03:37:32;;;;;;;;;;;4.40;97.00;;;;;;4994093;28;19914;-68
2021/05/30 03:40:01;;;;;;;;;;;4.50;97.00;;;;;;5002032;28;20242;-68
2021/05/30 03:42:29;;;;;;;;;;;4.50;96.90;;;;;;5004333;28;19917;-69
2021/05/30 03:44:58;;;;;;;;;;;4.50;96.90;;;;;;5006132;28;19917;-70
2021/05/30 03:47:24;;;;;;;;;;;4.50;96.80;;;;;;5003992;28;19913;-68
2021/05/30 03:49:50;;;;;;;;;;;4.60;96.90;;;;;;4999115;28;20012;-69
2021/05/30 03:52:15;;;;;;;;;;;4.60;96.90;;;;;;4998389;28;20004;-68
2021/05/30 03:54:41;;;;;;;;;;;4.60;97.00;;;;;;5001436;28;19975;-69
2021/05/30 03:57:07;;;;;;;;;;;4.60;97.10;;;;;;5004983;28;20001;-68
2021/05/30 03:59:32;;;;;;;;;;;4.60;97.20;;;;;;5005909;28;20032;-68
2021/05/30 04:01:58;;;;;;;;;;;4.70;97.20;;;;;;5005049;28;19929;-69
2021/05/30 04:04:23;;;;;;;;;;;4.70;97.20;;;;;;5002686;28;19961;-68
2021/05/30 04:06:49;;;;;;;;;;;4.70;97.20;;;;;;5000967;28;20246;-69
2021/05/30 04:09:14;;;;;;;;;;;4.80;97.30;;;;;;5004005;28;19929;-69
2021/05/30 04:11:39;;;;;;;;;;;4.90;97.30;;;;;;5003883;28;20342;-68
2021/05/30 04:14:05;;;;;;;;;;;5.00;97.20;;;;;;5006412;28;20019;-68
2021/05/30 04:16:31;;;;;;;;;;;5.00;96.90;;;;;;5001735;28;19914;-69
2021/05/30 04:18:57;;;;;;;;;;;5.00;97.00;;;;;;5005340;28;19936;-68
2021/05/30 04:21:22;;;;;;;;;;;5.10;97.10;;;;;;5000567;28;19918;-68
2021/05/30 04:23:48;;;;;;;;;;;5.10;97.00;;;;;;5004560;28;19983;-68
2021/05/30 04:26:13;;;;;;;;;;;5.20;97.10;;;;;;5001519;28;19921;-69
2021/05/30 04:28:39;;;;;;;;;;;5.20;97.00;;;;;;5002361;28;20048;-69
2021/05/30 04:31:06;;;;;;;;;;;5.30;97.20;;;;;;5001746;28;20004;-69
2021/05/30 04:33:31;;;;;;;;;;;5.30;97.10;;;;;;5002895;28;19913;-68
2021/05/30 04:35:57;;;;;;;;;;;5.40;97.00;;;;;;5001475;28;20337;-68
2021/05/30 04:38:23;;;;;;;;;;;5.50;97.00;;;;;;5003781;28;20001;-70
2021/05/30 04:40:49;;;;;;;;;;;5.50;97.00;;;;;;5004453;28;20269;-69
2021/05/30 04:43:15;;;;;;;;;;;5.60;97.00;;;;;;5004672;28;19921;-68
2021/05/30 04:45:40;;;;;;;;;;;5.60;97.10;;;;;;5004328;28;19918;-69
2021/05/30 04:48:06;;;;;;;;;;;5.60;97.10;;;;;;5002881;28;19914;-66
2021/05/30 04:50:32;;;;;;;;;;;5.70;97.20;;;;;;5004915;28;19928;-69
2021/05/30 04:52:57;;;;;;;;;;;5.60;97.10;;;;;;5000102;28;20114;-70
2021/05/30 04:55:23;;;;;;;;;;;5.70;97.20;;;;;;5003776;28;20254;-69
2021/05/30 04:57:48;;;;;;;;;;;5.80;97.30;;;;;;5003174;28;19929;-69
2021/05/30 05:00:15;;;;;;;;;;;5.80;97.40;;;;;;5001994;28;19913;-71
2021/05/30 05:02:40;;;;;;;;;;;5.80;97.30;;;;;;5001945;28;19961;-70
2021/05/30 05:05:07;;;;;;;;;;;5.80;97.30;;;;;;4991581;28;20009;-69
2021/05/30 05:07:32;;;;;;;;;;;5.90;97.40;;;;;;5001383;28;19975;-69
2021/05/30 05:09:58;;;;;;;;;;;6.00;97.40;;;;;;5001576;28;20386;-69
2021/05/30 05:12:24;;;;;;;;;;;6.10;97.40;;;;;;5001488;28;19917;-69
2021/05/30 05:14:49;;;;;;;;;;;6.10;97.50;;;;;;5004042;28;19914;-68
2021/05/30 05:17:14;;;;;;;;;;;6.30;97.50;;;;;;4999358;28;19986;-69
2021/05/30 05:19:40;;;;;;;;;;;6.50;97.60;;;;;;5002126;28;19952;-68
2021/05/30 05:22:06;;;;;;;;;;;6.60;97.60;;;;;;4999572;28;19940;-69
2021/05/30 05:24:31;;;;;;;;;;;6.70;97.50;;;;;;5004239;28;19913;-69
2021/05/30 05:26:57;;;;;;;;;;;6.80;97.50;;;;;;5002645;28;19936;-69
2021/05/30 05:29:22;;;;;;;;;;;6.90;97.30;;;;;;5003639;28;19971;-68
2021/05/30 05:31:48;;;;;;;;;;;7.10;97.40;;;;;;5002906;28;19987;-69
2021/05/30 05:34:13;;;;;;;;;;;7.20;97.20;;;;;;5003282;28;20235;-68
2021/05/30 05:36:39;;;;;;;;;;;7.40;97.30;;;;;;5010159;28;19921;-69
2021/05/30 05:39:04;;;;;;;;;;;7.60;97.20;;;;;;4998146;28;22380;-69
2021/05/30 05:41:31;;;;;;;;;;;7.70;97.10;;;;;;5001187;28;19922;-70
2021/05/30 05:43:56;;;;;;;;;;;7.80;96.60;;;;;;4994686;28;19922;-69
2021/05/30 05:46:21;;;;;;;;;;;8.00;96.50;;;;;;5001152;28;20009;-69
2021/05/30 05:48:47;;;;;;;;;;;8.10;96.40;;;;;;4994200;28;19940;-70
2021/05/30 05:51:12;;;;;;;;;;;8.30;96.30;;;;;;5003520;28;20207;-69
2021/05/30 05:53:38;;;;;;;;;;;8.50;96.00;;;;;;4998993;28;19917;-68
2021/05/30 05:56:04;;;;;;;;;;;8.60;95.50;;;;;;5000324;28;19960;-69
2021/05/30 05:58:29;;;;;;;;;;;8.70;95.30;;;;;;5001101;28;19948;-69
2021/05/30 06:00:55;;;;;;;;;;;8.90;95.10;;;;;;4995879;28;19918;-69
2021/05/30 06:03:20;;;;;;;;;;;9.00;94.60;;;;;;4995465;28;19925;-70
2021/05/30 06:05:46;;;;;;;;;;;9.00;94.40;;;;;;5001114;28;20195;-71
2021/05/30 06:08:11;;;;;;;;;;;9.10;94.60;;;;;;5016547;28;20020;-69
2021/05/30 06:10:37;;;;;;;;;;;9.30;94.10;;;;;;5019816;28;19967;-69
2021/05/30 06:13:09;;;;;;;;;;;9.40;94.00;;;;;;5022444;28;19953;-69
2021/05/30 06:15:35;;;;;;;;;;;9.60;93.80;;;;;;5020147;28;20459;-68
2021/05/30 06:18:08;;;;;;;;;;;9.70;93.20;;;;;;5023532;28;20246;-70
2021/05/30 06:20:34;;;;;;;;;;;10.00;93.20;;;;;;5019692;28;19917;-72
2021/05/30 06:22:59;;;;;;;;;;;10.00;92.60;;;;;;5020675;28;19953;-70
2021/05/30 06:25:28;;;;;;;;;;;10.20;92.50;;;;;;5018483;28;19973;-70
2021/05/30 06:27:55;;;;;;;;;;;10.30;91.70;;;;;;5021658;28;20079;-70
2021/05/30 06:30:22;;;;;;;;;;;10.50;91.70;;;;;;5017275;28;19917;-70
2021/05/30 06:32:48;;;;;;;;;;;10.50;91.00;;;;;;5018887;28;19976;-69
2021/05/30 06:35:13;;;;;;;;;;;10.40;91.20;;;;;;5017220;28;20297;-71
2021/05/30 06:37:39;;;;;;;;;;;10.70;91.00;;;;;;5019192;28;19936;-68
2021/05/30 06:40:05;;;;;;;;;;;10.60;90.70;;;;;;5019365;28;20027;-71
2021/05/30 06:42:31;;;;;;;;;;;11.00;90.70;;;;;;5023953;28;20027;-68
2021/05/30 06:44:56;;;;;;;;;;;11.10;90.00;;;;;;5021409;28;20346;-70
2021/05/30 06:47:22;;;;;;;;;;;11.00;89.80;;;;;;5021996;28;20369;-69
2021/05/30 06:49:47;;;;;;;;;;;11.10;89.00;;;;;;5020220;28;19925;-70
2021/05/30 06:52:13;;;;;;;;;;;11.30;89.10;;;;;;5021834;28;19957;-69
2021/05/30 06:54:38;;;;;;;;;;;11.50;87.60;;;;;;5022723;28;20376;-69
2021/05/30 06:57:04;;;;;;;;;;;11.70;88.10;;;;;;5017938;28;19920;-69
2021/05/30 06:59:30;;;;;;;;;;;11.20;88.70;;;;;;5020868;28;20022;-69
2021/05/30 07:01:56;;;;;;;;;;;11.40;88.20;;;;;;5020950;28;19921;-70
2021/05/30 07:04:22;;;;;;;;;;;11.40;88.20;;;;;;5022506;28;19921;-69
2021/05/30 07:06:48;;;;;;;;;;;11.70;88.70;;;;;;5020105;28;19959;-71
2021/05/30 07:09:14;;;;;;;;;;;11.90;86.90;;;;;;5019837;28;19967;-70
2021/05/30 07:11:39;;;;;;;;;;;11.80;87.40;;;;;;5022059;28;20356;-70
2021/05/30 07:14:05;;;;;;;;;;;11.60;86.30;;;;;;5019302;28;19961;-70
2021/05/30 07:16:30;;;;;;;;;;;11.90;87.30;;;;;;5020726;28;20342;-71
2021/05/30 07:18:56;;;;;;;;;;;11.40;87.70;;;;;;5022440;28;19924;-69
2021/05/30 07:21:21;;;;;;;;;;;11.50;87.70;;;;;;5022873;28;19944;-69
2021/05/30 07:23:47;;;;;;;;;;;11.80;88.10;;;;;;5024793;28;20024;-70
2021/05/30 07:26:12;;;;;;;;;;;11.80;87.10;;;;;;5022586;28;19921;-71
2021/05/30 07:28:39;;;;;;;;;;;11.70;87.50;;;;;;5024463;28;19917;-70
2021/05/30 07:31:04;;;;;;;;;;;11.50;88.00;;;;;;5026191;28;19996;-69
2021/05/30 07:33:30;;;;;;;;;;;11.60;87.80;;;;;;5023459;28;20094;-70
2021/05/30 07:35:55;;;;;;;;;;;11.10;88.20;;;;;;5021821;28;20097;-69
2021/05/30 07:38:21;;;;;;;;;;;11.40;89.00;;;;;;5017994;28;19968;-70
2021/05/30 07:40:47;;;;;;;;;;;11.70;87.70;;;;;;5025677;28;19991;-68
2021/05/30 07:43:13;;;;;;;;;;;11.50;87.30;;;;;;5024257;28;19937;-68
2021/05/30 07:45:39;;;;;;;;;;;11.50;86.60;;;;;;5025233;28;19983;-69
2021/05/30 07:48:04;;;;;;;;;;;12.00;86.80;;;;;;5024036;28;20011;-69
2021/05/30 07:50:30;;;;;;;;;;;12.00;85.20;;;;;;5022269;28;20046;-69
2021/05/30 07:52:56;;;;;;;;;;;11.90;85.70;;;;;;5024399;28;19913;-70
2021/05/30 07:55:21;;;;;;;;;;;12.00;85.20;;;;;;5024144;28;19987;-68
2021/05/30 07:57:47;;;;;;;;;;;12.60;82.30;;;;;;5020972;28;20111;-70
2021/05/30 08:00:14;;;;;;;;;;;12.00;84.40;;;;;;5024785;28;20008;-69
2021/05/30 08:02:39;;;;;;;;;;;12.50;83.90;;;;;;5025071;28;20446;-70
2021/05/30 08:05:06;;;;;;;;;;;12.30;83.70;;;;;;5025695;28;19917;-69
2021/05/30 08:07:32;;;;;;;;;;;12.60;82.80;;;;;;5025147;28;19940;-69
2021/05/30 08:09:58;;;;;;;;;;;12.30;83.60;;;;;;5024873;28;19917;-70
2021/05/30 08:12:23;;;;;;;;;;;12.10;84.10;;;;;;5025940;28;19940;-69
2021/05/30 08:14:49;;;;;;;;;;;12.30;84.60;;;;;;5025689;28;20047;-70
2021/05/30 08:17:14;;;;;;;;;;;12.00;83.60;;;;;;5022614;28;20103;-69
2021/05/30 08:19:40;;;;;;;;;;;12.50;83.50;;;;;;5023569;28;20246;-69
2021/05/30 08:22:05;;;;;;;;;;;12.60;84.10;;;;;;5023317;28;20039;-70
2021/05/30 08:24:31;;;;;;;;;;;12.70;83.50;;;;;;5024513;28;19913;-69
2021/05/30 08:26:57;;;;;;;;;;;13.00;82.50;;;;;;5024608;28;20012;-69
2021/05/30 08:29:23;;;;;;;;;;;12.70;81.60;;;;;;5020767;28;19913;-69
2021/05/30 08:31:49;;;;;;;;;;;12.80;82.30;;;;;;5024405;28;19937;-69
2021/05/30 08:34:15;;;;;;;;;;;12.80;82.10;;;;;;5024145;28;19929;-69
2021/05/30 08:36:41;;;;;;;;;;;13.00;82.20;;;;;;5022923;28;20000;-70
2021/05/30 08:39:06;;;;;;;;;;;12.80;81.20;;;;;;5022741;28;20246;-71
2021/05/30 08:41:32;;;;;;;;;;;13.20;81.20;;;;;;5020541;28;20091;-70
2021/05/30 08:43:57;;;;;;;;;;;13.30;81.90;;;;;;5023517;28;19920;-70
2021/05/30 08:46:26;;;;;;;;;;;13.30;81.80;;;;;;5024128;28;19928;-70
2021/05/30 08:48:52;;;;;;;;;;;13.50;81.90;;;;;;5018279;28;19913;-69
2021/05/30 08:51:18;;;;;;;;;;;13.70;80.00;;;;;;5017006;28;19924;-70
2021/05/30 08:53:43;;;;;;;;;;;13.60;78.30;;;;;;5020791;28;19913;-71
2021/05/30 08:56:12;;;;;;;;;;;13.80;78.20;;;;;;5023520;28;19997;-70
2021/05/30 08:58:56;;;;;;;;;;;13.90;78.60;;;;;;5023873;28;19925;-71
2021/05/30 09:01:23;;;;;;;;;;;14.00;79.70;;;;;;5021583;28;20016;-68
2021/05/30 09:03:49;;;;;;;;;;;13.80;79.80;;;;;;5019927;28;19923;-70
2021/05/30 09:06:16;;;;;;;;;;;13.80;79.30;;;;;;5024579;28;20320;-70
2021/05/30 09:08:42;;;;;;;;;;;13.90;77.10;;;;;;5020784;28;20023;-71
2021/05/30 09:11:08;;;;;;;;;;;13.60;78.40;;;;;;5018171;28;20477;-69
2021/05/30 09:13:39;;;;;;;;;;;13.90;77.60;;;;;;5021289;28;20004;-71
2021/05/30 09:18:33;;;;;;;;;;;13.90;76.70;;;;;;5021688;28;20023;-70
2021/05/30 09:21:05;;;;;;;;;;;14.00;77.80;;;;;;5020061;28;19918;-70
2021/05/30 09:23:32;;;;;;;;;;;14.20;77.60;;;;;;5022580;28;20388;-69
2021/05/30 09:26:18;;;;;;;;;;;14.40;76.70;;;;;;5025326;28;19921;-69
2021/05/30 09:29:02;;;;;;;;;;;14.60;72.80;;;;;;5020696;28;20321;-71
2021/05/30 09:31:28;;;;;;;;;;;14.10;74.60;;;;;;5023065;28;19927;-69
2021/05/30 09:33:53;;;;;;;;;;;14.80;75.10;;;;;;5022876;28;20004;-69
2021/05/30 09:36:22;;;;;;;;;;;14.70;73.90;;;;;;5024002;28;19940;-71
2021/05/30 09:39:00;;;;;;;;;;;14.90;72.70;;;;;;5022087;28;20013;-72
2021/05/30 09:41:26;;;;;;;;;;;15.10;74.80;;;;;;5015762;28;20012;-70
2021/05/30 09:43:52;;;;;;;;;;;15.50;74.50;;;;;;5020979;28;20010;-70
2021/05/30 09:46:19;;;;;;;;;;;15.50;73.20;;;;;;5023892;28;19913;-70
2021/05/30 09:48:50;;;;;;;;;;;15.30;73.80;;;;;;5019753;28;19933;-70
2021/05/30 09:51:33;;;;;;;;;;;15.80;72.00;;;;;;5021849;28;19913;-70
2021/05/30 09:54:00;;;;;;;;;;;15.30;72.60;;;;;;5023075;28;19988;-70
2021/05/30 09:56:27;;;;;;;;;;;15.50;71.90;;;;;;5019562;28;19921;-70
2021/05/30 09:58:53;;;;;;;;;;;15.60;74.10;;;;;;5023975;28;19924;-70
2021/05/30 10:01:18;;;;;;;;;;;16.00;69.80;;;;;;5019359;28;19925;-70
2021/05/30 10:03:44;;;;;;;;;;;15.90;70.60;;;;;;5022621;28;19960;-69
2021/05/30 10:06:09;;;;;;;;;;;16.50;70.30;;;;;;5021645;28;19921;-70
2021/05/30 10:08:35;;;;;;;;;;;16.50;69.70;;;;;;5021347;28;19944;-70
2021/05/30 10:11:01;;;;;;;;;;;16.80;69.30;;;;;;5020789;28;19913;-70
2021/05/30 10:13:27;;;;;;;;;;;16.80;69.00;;;;;;5021499;28;20273;-70
2021/05/30 10:15:52;;;;;;;;;;;17.10;69.10;;;;;;5018758;28;19991;-70
2021/05/30 10:18:18;;;;;;;;;;;17.50;67.30;;;;;;5021050;28;20023;-70
2021/05/30 10:20:43;;;;;;;;;;;17.50;67.20;;;;;;5020988;28;19990;-70
2021/05/30 10:23:09;;;;;;;;;;;17.40;64.00;;;;;;5021706;28;20231;-69
2021/05/30 10:25:36;;;;;;;;;;;17.60;65.50;;;;;;5021580;28;19979;-70
2021/05/30 10:28:10;;;;;;;;;;;17.70;61.80;;;;;;5022355;28;19913;-68
2021/05/30 10:30:37;;;;;;;;;;;17.70;65.80;;;;;;5016277;28;19921;-69
2021/05/30 10:33:12;;;;;;;;;;;17.90;62.20;;;;;;5021014;28;19913;-70
2021/05/30 10:35:38;;;;;;;;;;;17.60;61.50;;;;;;5020714;28;20389;-69
2021/05/30 10:38:04;;;;;;;;;;;17.90;62.10;;;;;;5021742;28;19913;-70
2021/05/30 10:40:32;;;;;;;;;;;18.00;59.40;;;;;;5022055;28;19996;-71
2021/05/30 10:43:07;;;;;;;;;;;18.50;60.30;;;;;;5021565;28;20350;-71
2021/05/30 10:45:55;;;;;;;;;;;17.60;59.20;;;;;;5020207;28;20474;-71
2021/05/30 10:48:20;;;;;;;;;;;18.10;60.10;;;;;;5021078;28;19933;-71
2021/05/30 10:50:56;;;;;;;;;;;18.70;59.20;;;;;;5020743;28;19936;-71
2021/05/30 10:53:27;;;;;;;;;;;18.70;58.50;;;;;;5022149;28;19913;-71
2021/05/30 10:55:53;;;;;;;;;;;18.70;57.40;;;;;;5020516;28;19917;-71
2021/05/30 10:58:21;;;;;;;;;;;18.50;59.80;;;;;;5022735;28;20278;-71
2021/05/30 11:00:47;;;;;;;;;;;19.10;58.90;;;;;;5021564;28;19993;-70
2021/05/30 11:03:13;;;;;;;;;;;19.00;59.10;;;;;;5022686;28;20300;-71
2021/05/30 11:05:38;;;;;;;;;;;19.40;57.90;;;;;;5022162;28;19917;-72
2021/05/30 11:08:04;;;;;;;;;;;19.20;59.80;;;;;;5020103;28;20701;-70
2021/05/30 11:10:29;;;;;;;;;;;19.20;56.90;;;;;;5020566;28;19936;-71
2021/05/30 11:12:55;;;;;;;;;;;19.20;58.10;;;;;;5021609;28;19914;-70
2021/05/30 11:15:22;;;;;;;;;;;18.80;60.10;;;;;;5014230;28;19920;-73
2021/05/30 11:17:51;;;;;;;;;;;19.20;59.10;;;;;;5019885;28;19953;-72
2021/05/30 11:20:18;;;;;;;;;;;19.50;60.40;;;;;;5019368;28;20011;-71
2021/05/30 11:22:45;;;;;;;;;;;20.10;56.20;;;;;;5022533;28;19982;-72
2021/05/30 11:25:11;;;;;;;;;;;20.10;55.60;;;;;;5021811;28;19960;-71
2021/05/30 11:28:06;;;;;;;;;;;19.50;57.90;;;;;;5022757;28;19920;-71
2021/05/30 11:30:41;;;;;;;;;;;20.00;56.10;;;;;;5011823;28;20028;-71
2021/05/30 11:33:08;;;;;;;;;;;20.30;54.80;;;;;;5021338;28;19925;-71
2021/05/30 11:35:33;;;;;;;;;;;20.50;54.60;;;;;;5028606;28;20349;-72
2021/05/30 11:37:59;;;;;;;;;;;20.00;57.60;;;;;;5022064;28;19917;-72
2021/05/30 11:40:25;;;;;;;;;;;20.20;57.30;;;;;;5021968;28;19917;-72
2021/05/30 11:42:51;;;;;;;;;;;20.50;56.80;;;;;;5022312;28;20063;-71
2021/05/30 11:45:37;;;;;;;;;;;20.60;56.70;;;;;;5022866;28;20382;-71
2021/05/30 11:48:02;;;;;;;;;;;21.50;55.10;;;;;;5016293;28;19997;-70
2021/05/30 11:50:28;;;;;;;;;;;21.20;53.50;;;;;;5017093;28;20395;-71
2021/05/30 11:52:54;;;;;;;;;;;21.00;53.70;;;;;;5021900;28;19965;-71
2021/05/30 11:55:19;;;;;;;;;;;21.00;53.70;;;;;;5017596;28;19985;-71
2021/05/30 11:57:45;;;;;;;;;;;21.60;54.10;;;;;;5020457;28;20325;-71
2021/05/30 12:00:10;;;;;;;;;;;22.40;50.80;;;;;;5021066;28;19913;-72
2021/05/30 12:02:40;;;;;;;;;;;22.20;49.70;;;;;;5005921;28;19997;-71
2021/05/30 12:05:16;;;;;;;;;;;22.80;51.60;;;;;;5017403;28;19996;-71
2021/05/30 12:07:42;;;;;;;;;;;23.10;48.50;;;;;;5022130;28;19932;-71
2021/05/30 12:10:14;;;;;;;;;;;23.00;45.60;;;;;;5022500;28;19939;-73
2021/05/30 12:12:43;;;;;;;;;;;23.00;46.50;;;;;;5022780;28;20404;-71
2021/05/30 12:15:13;;;;;;;;;;;22.90;49.10;;;;;;5023068;28;19982;-71
2021/05/30 12:17:44;;;;;;;;;;;22.50;47.00;;;;;;5022296;28;19975;-71
2021/05/30 12:20:20;;;;;;;;;;;23.10;47.00;;;;;;5017908;28;19997;-72
2021/05/30 12:22:46;;;;;;;;;;;22.50;46.30;;;;;;5022750;28;20219;-72
2021/05/30 12:25:12;;;;;;;;;;;23.00;49.60;;;;;;5022986;28;19925;-71
2021/05/30 12:27:38;;;;;;;;;;;23.40;45.30;;;;;;5023314;28;20281;-71
2021/05/30 12:30:04;;;;;;;;;;;23.40;43.00;;;;;;5022371;28;19920;-72
2021/05/30 12:32:29;;;;;;;;;;;23.70;43.90;;;;;;5021971;28;20245;-71
2021/05/30 12:34:55;;;;;;;;;;;24.00;43.90;;;;;;5023157;28;19917;-72
2021/05/30 12:37:37;;;;;;;;;;;23.90;45.00;;;;;;5021674;28;19967;-71
2021/05/30 12:40:03;;;;;;;;;;;23.70;40.20;;;;;;5021901;28;20336;-71
2021/05/30 12:42:30;;;;;;;;;;;23.80;44.40;;;;;;5021271;28;21483;-71
2021/05/30 12:45:03;;;;;;;;;;;24.40;43.80;;;;;;5021858;28;20018;-71
2021/05/30 12:47:37;;;;;;;;;;;23.90;43.50;;;;;;5022797;28;19973;-74
2021/05/30 12:50:04;;;;;;;;;;;23.80;43.50;;;;;;5020658;28;20008;-71
2021/05/30 12:52:41;;;;;;;;;;;22.90;45.50;;;;;;5022956;28;19917;-70
2021/05/30 12:55:07;;;;;;;;;;;23.50;45.10;;;;;;5019971;28;20548;-72
2021/05/30 12:57:33;;;;;;;;;;;24.10;43.00;;;;;;5021832;28;19927;-70
2021/05/30 12:59:59;;;;;;;;;;;23.60;43.60;;;;;;5017927;28;19921;-71
2021/05/30 13:02:24;;;;;;;;;;;24.00;41.80;;;;;;5016495;28;19928;-73
2021/05/30 13:04:50;;;;;;;;;;;24.30;41.60;;;;;;5018080;28;19995;-71
2021/05/30 13:07:18;;;;;;;;;;;23.90;43.10;;;;;;5016531;28;20277;-71
2021/05/30 13:09:50;;;;;;;;;;;24.50;43.10;;;;;;5018889;28;19946;-72
2021/05/30 13:12:26;;;;;;;;;;;25.10;42.80;;;;;;5021315;28;20355;-71
2021/05/30 13:15:11;;;;;;;;;;;25.00;40.90;;;;;;5019086;28;19918;-71
2021/05/30 13:17:37;;;;;;;;;;;25.40;43.90;;;;;;5020659;28;19913;-71
2021/05/30 13:20:03;;;;;;;;;;;25.80;39.00;;;;;;5021040;28;19971;-72
2021/05/30 13:22:28;;;;;;;;;;;26.40;38.00;;;;;;5020780;28;19969;-71
2021/05/30 13:24:54;;;;;;;;;;;26.10;35.70;;;;;;5020839;28;20350;-72
2021/05/30 13:27:23;;;;;;;;;;;25.90;35.10;;;;;;5019609;28;19997;-70
2021/05/30 13:30:06;;;;;;;;;;;26.40;36.30;;;;;;5019851;28;20370;-72
2021/05/30 13:32:31;;;;;;;;;;;26.40;37.00;;;;;;5029427;28;19981;-71
2021/05/30 13:34:57;;;;;;;;;;;25.90;36.50;;;;;;5017726;28;20012;-72
2021/05/30 13:37:22;;;;;;;;;;;25.60;39.90;;;;;;5020889;28;19965;-72
2021/05/30 13:39:48;;;;;;;;;;;26.30;38.00;;;;;;5016563;28;19967;-74
2021/05/30 13:42:13;;;;;;;;;;;25.70;39.50;;;;;;5018183;28;19913;-71
2021/05/30 13:44:39;;;;;;;;;;;26.60;40.00;;;;;;5018757;28;19971;-72
2021/05/30 13:47:04;;;;;;;;;;;27.00;38.70;;;;;;5020191;28;19917;-73
2021/05/30 13:49:30;;;;;;;;;;;27.10;37.30;;;;;;5019125;28;19941;-71
2021/05/30 13:51:55;;;;;;;;;;;27.40;36.30;;;;;;5021190;28;19932;-72
2021/05/30 13:54:21;;;;;;;;;;;27.30;38.00;;;;;;5021471;28;20028;-74
2021/05/30 13:56:47;;;;;;;;;;;26.30;35.00;;;;;;5020287;28;20322;-72
2021/05/30 13:59:13;;;;;;;;;;;27.10;35.20;;;;;;5023629;28;19923;-72
2021/05/30 14:01:38;;;;;;;;;;;27.40;35.50;;;;;;5020706;28;19932;-72
2021/05/30 14:04:04;;;;;;;;;;;27.20;36.20;;;;;;5022134;28;19925;-72
2021/05/30 14:06:29;;;;;;;;;;;27.40;35.10;;;;;;5020127;28;20034;-72
2021/05/30 14:08:56;;;;;;;;;;;28.00;35.60;;;;;;5021626;28;19914;-73
2021/05/30 14:11:25;;;;;;;;;;;27.10;35.50;;;;;;5020289;28;19953;-71
2021/05/30 14:13:50;;;;;;;;;;;28.20;37.30;;;;;;5018862;28;20535;-72
2021/05/30 14:16:16;;;;;;;;;;;28.20;35.00;;;;;;5020463;28;20034;-72
2021/05/30 14:18:41;;;;;;;;;;;28.70;35.20;;;;;;5018450;28;19921;-71
2021/05/30 14:21:07;;;;;;;;;;;27.60;35.30;;;;;;5020698;28;19943;-72
2021/05/30 14:23:33;;;;;;;;;;;28.00;35.80;;;;;;5019297;28;20404;-72